Time;durP1;ratioP1;P1;durP2;ratioP2;P2;SDS_P1;SDS_P2;PMS_P1;PMS_P2;Temp;Humidity;BMP_temperature;BMP_pressure;BME280_temperature;BME280_humidity;BME280_pressure;Samples;Min_cycle;Max_cycle;Signal;HPM_P1;HPM_P2
2022/01/22 00:02:05;;;;;;;;;;;;;;;4.90;39.56;100018.97;4464269;32;33882;-69
2022/01/22 00:04:33;;;;;;;;;;;;;;;5.36;37.85;99998.19;4462699;32;33958;-66
2022/01/22 00:07:02;;;;;;;;;;;;;;;5.56;37.79;99996.34;4465055;32;33237;-69
2022/01/22 00:09:51;;;;;;;;;;;;;;;4.79;38.30;100002.72;4465043;32;34008;-68
2022/01/22 00:15:25;;;;;;;;;;;;;;;4.93;39.63;99999.41;4409866;32;34931;-68
2022/01/22 00:17:52;;;;;;;;;;;;;;;4.62;37.58;100002.63;4415385;32;33335;-66
2022/01/22 00:20:20;;;;;;;;;;;;;;;4.25;40.66;100003.44;4438526;32;34330;-67
2022/01/22 00:22:48;;;;;;;;;;;;;;;4.48;41.92;100000.63;4464956;32;34261;-67
2022/01/22 00:25:16;;;;;;;;;;;;;;;4.77;39.05;100004.56;4466524;32;35016;-66
2022/01/22 00:27:44;;;;;;;;;;;;;;;4.83;38.29;100008.72;4465307;32;32589;-68
2022/01/22 00:30:12;;;;;;;;;;;;;;;4.10;40.21;100003.19;4464771;32;34368;-67
2022/01/22 00:32:40;;;;;;;;;;;;;;;4.80;39.18;100004.44;4465215;32;34831;-66
2022/01/22 00:35:09;;;;;;;;;;;;;;;4.56;38.92;100001.12;4470864;32;34466;-68
2022/01/22 00:37:39;;;;;;;;;;;;;;;4.37;38.75;99990.50;4462825;32;34806;-66
2022/01/22 00:40:09;;;;;;;;;;;;;;;4.72;39.06;99996.00;4465165;32;35262;-66
2022/01/22 00:42:40;;;;;;;;;;;;;;;4.62;40.38;99992.00;4465135;32;34434;-66
2022/01/22 00:45:08;;;;;;;;;;;;;;;4.49;38.23;99994.37;4465121;32;34232;-68
2022/01/22 00:47:36;;;;;;;;;;;;;;;4.31;39.27;99993.44;4464246;32;33548;-66
2022/01/22 00:50:04;;;;;;;;;;;;;;;5.11;38.16;99990.56;4466495;32;34526;-65
2022/01/22 00:52:32;;;;;;;;;;;;;;;5.13;38.19;99982.53;4461681;32;34160;-67
2022/01/22 00:54:59;;;;;;;;;;;;;;;5.43;36.65;99974.00;4465747;32;33850;-67
2022/01/22 00:57:26;;;;;;;;;;;;;;;5.07;39.42;99980.16;4466806;32;31771;-65
2022/01/22 00:59:55;;;;;;;;;;;;;;;5.00;37.85;99982.25;4465900;32;35329;-66
2022/01/22 01:02:22;;;;;;;;;;;;;;;4.85;38.60;99973.25;4461856;32;34321;-65
2022/01/22 01:04:50;;;;;;;;;;;;;;;5.32;37.28;99971.88;4462114;32;35052;-65
2022/01/22 01:07:17;;;;;;;;;;;;;;;5.57;37.15;99966.19;4465219;32;33150;-66
2022/01/22 01:09:45;;;;;;;;;;;;;;;5.97;36.27;99966.81;4462787;32;35027;-66
2022/01/22 01:12:13;;;;;;;;;;;;;;;5.06;37.94;99954.56;4459157;32;33561;-68
2022/01/22 01:33:49;;;;;;;;;;;;;;;4.66;38.99;99884.91;4466316;32;35335;-65
2022/01/22 01:36:17;;;;;;;;;;;;;;;4.51;40.43;99877.69;4466935;32;34139;-68
2022/01/22 01:38:51;;;;;;;;;;;;;;;4.81;39.41;99876.19;4467526;32;33430;-68
2022/01/22 01:41:28;;;;;;;;;;;;;;;4.80;40.15;99876.28;4470318;32;33852;-66
2022/01/22 01:43:55;;;;;;;;;;;;;;;4.54;40.47;99877.53;4464893;32;35403;-66
2022/01/22 01:46:29;;;;;;;;;;;;;;;4.82;40.42;99866.47;4459968;32;33877;-65
2022/01/22 01:48:58;;;;;;;;;;;;;;;4.62;39.39;99862.13;4468256;32;33360;-67
2022/01/22 01:51:30;;;;;;;;;;;;;;;4.86;39.98;99847.66;4465704;32;33970;-65
2022/01/22 01:54:22;;;;;;;;;;;;;;;4.63;39.58;99840.00;4459133;32;34173;-67
2022/01/22 01:59:41;;;;;;;;;;;;;;;4.41;40.39;99832.22;4455709;32;33992;-66
2022/01/22 02:02:09;;;;;;;;;;;;;;;4.45;42.98;99820.53;4460477;32;34452;-65
2022/01/22 02:04:37;;;;;;;;;;;;;;;4.47;39.91;99815.16;4461943;32;34035;-65
2022/01/22 02:07:05;;;;;;;;;;;;;;;4.48;40.14;99800.97;4466507;32;33944;-67
2022/01/22 02:09:33;;;;;;;;;;;;;;;4.32;40.98;99787.59;4463030;32;33220;-67
2022/01/22 02:12:13;;;;;;;;;;;;;;;3.96;41.10;99799.88;4465695;32;34222;-66
2022/01/22 02:25:33;;;;;;;;;;;;;;;4.23;40.36;99783.59;4462597;32;34737;-67
2022/01/22 02:28:02;;;;;;;;;;;;;;;4.31;40.27;99781.44;4463941;32;33979;-66
2022/01/22 02:30:35;;;;;;;;;;;;;;;4.19;39.73;99780.25;4464294;32;34058;-67
2022/01/22 02:35:50;;;;;;;;;;;;;;;4.16;39.72;99772.44;4462347;32;34430;-66
2022/01/22 02:38:30;;;;;;;;;;;;;;;3.97;41.03;99761.84;4459607;32;32818;-69
2022/01/22 02:40:57;;;;;;;;;;;;;;;3.93;40.67;99757.66;4454223;32;33921;-69
2022/01/22 02:43:25;;;;;;;;;;;;;;;3.77;41.23;99763.75;4460127;32;33182;-66
2022/01/22 02:45:54;;;;;;;;;;;;;;;3.88;41.21;99770.22;4464769;32;34524;-67
2022/01/22 02:48:21;;;;;;;;;;;;;;;4.19;40.38;99764.34;4461888;32;34324;-67
2022/01/22 02:50:48;;;;;;;;;;;;;;;3.93;41.15;99770.88;4464286;32;33407;-68
2022/01/22 02:53:16;;;;;;;;;;;;;;;3.39;42.67;99763.69;4463724;32;34705;-68
2022/01/22 02:55:45;;;;;;;;;;;;;;;3.68;41.58;99762.38;4465173;32;33834;-66
2022/01/22 02:58:13;;;;;;;;;;;;;;;3.55;41.62;99761.22;4464386;32;34967;-69
2022/01/22 03:00:41;;;;;;;;;;;;;;;3.55;41.88;99767.38;4464913;32;34213;-70
2022/01/22 03:03:08;;;;;;;;;;;;;;;4.06;41.04;99765.88;4463364;32;32563;-68
2022/01/22 03:05:36;;;;;;;;;;;;;;;4.05;41.58;99758.88;4465043;32;34035;-70
2022/01/22 03:08:08;;;;;;;;;;;;;;;4.09;41.15;99744.53;4464138;32;34994;-68
2022/01/22 03:10:36;;;;;;;;;;;;;;;4.11;42.96;99737.38;4464796;32;33216;-70
2022/01/22 03:18:17;;;;;;;;;;;;;;;3.96;42.80;99741.63;4459616;32;33706;-68
2022/01/22 03:21:02;;;;;;;;;;;;;;;4.40;41.88;99740.41;4462981;32;33762;-69
2022/01/22 03:29:11;;;;;;;;;;;;;;;4.74;39.95;99739.53;4464487;32;32791;-69
2022/01/22 03:31:41;;;;;;;;;;;;;;;4.65;40.50;99732.06;4459630;32;33457;-70
2022/01/22 03:34:09;;;;;;;;;;;;;;;4.59;40.76;99732.34;4464022;32;34031;-66
2022/01/22 03:36:36;;;;;;;;;;;;;;;4.83;40.35;99725.81;4465177;32;33939;-67
2022/01/22 03:39:05;;;;;;;;;;;;;;;5.19;40.01;99719.53;4464556;32;32753;-67
2022/01/22 03:41:33;;;;;;;;;;;;;;;5.58;38.89;99715.66;4464179;32;34996;-68
2022/01/22 03:44:00;;;;;;;;;;;;;;;5.44;39.32;99721.72;4464207;32;34876;-66
2022/01/22 03:46:28;;;;;;;;;;;;;;;5.42;38.71;99720.09;4464489;32;35126;-67
2022/01/22 03:48:57;;;;;;;;;;;;;;;5.41;38.66;99710.44;4465688;32;33996;-67
2022/01/22 03:51:24;;;;;;;;;;;;;;;5.19;39.29;99697.44;4463941;32;33399;-67
2022/01/22 03:53:52;;;;;;;;;;;;;;;5.21;39.76;99690.28;4464441;32;33865;-68
2022/01/22 03:56:20;;;;;;;;;;;;;;;5.34;39.10;99693.97;4461635;32;33705;-67
2022/01/22 03:58:48;;;;;;;;;;;;;;;5.33;40.35;99700.25;4461804;32;35010;-66
2022/01/22 04:04:10;;;;;;;;;;;;;;;4.82;45.50;99702.06;4466553;32;33999;-67
2022/01/22 04:09:11;;;;;;;;;;;;;;;5.59;45.82;99689.03;4463851;32;33366;-68
2022/01/22 04:11:41;;;;;;;;;;;;;;;5.32;46.94;99699.34;4463941;32;31498;-68
2022/01/22 04:14:23;;;;;;;;;;;;;;;5.25;47.52;99690.00;4464185;32;33568;-67
2022/01/22 04:25:03;;;;;;;;;;;;;;;5.92;48.06;99684.59;4463569;32;35834;-67
2022/01/22 04:27:30;;;;;;;;;;;;;;;6.21;47.30;99689.13;4460832;32;34235;-68
2022/01/22 04:29:59;;;;;;;;;;;;;;;6.36;47.92;99694.50;4459106;32;34580;-68
2022/01/22 04:32:28;;;;;;;;;;;;;;;6.44;47.34;99686.94;4466789;32;34315;-67
2022/01/22 04:34:55;;;;;;;;;;;;;;;6.58;47.39;99675.47;4463250;32;33686;-66
2022/01/22 04:37:24;;;;;;;;;;;;;;;6.72;47.53;99671.06;4465864;32;33896;-65
2022/01/22 04:39:52;;;;;;;;;;;;;;;7.06;46.67;99671.66;4464180;32;34155;-67
2022/01/22 04:42:19;;;;;;;;;;;;;;;7.09;46.95;99670.59;4464552;32;33579;-67
2022/01/22 04:44:58;;;;;;;;;;;;;;;7.45;46.30;99667.47;4465213;32;33570;-68
2022/01/22 04:47:46;;;;;;;;;;;;;;;7.59;45.92;99659.47;4464585;32;35602;-67
2022/01/22 04:55:40;;;;;;;;;;;;;;;7.24;47.44;99653.69;4462010;32;35195;-67
2022/01/22 04:58:08;;;;;;;;;;;;;;;7.02;48.38;99658.63;4459412;32;35403;-67
2022/01/22 05:00:37;;;;;;;;;;;;;;;7.53;47.10;99659.84;4462668;32;33978;-68
2022/01/22 05:03:05;;;;;;;;;;;;;;;8.13;46.02;99663.97;4463534;32;32415;-67
2022/01/22 05:05:34;;;;;;;;;;;;;;;8.28;45.56;99656.75;4465323;32;33811;-67
2022/01/22 05:08:01;;;;;;;;;;;;;;;8.46;45.08;99660.06;4463490;32;32620;-69
2022/01/22 05:10:29;;;;;;;;;;;;;;;8.92;43.88;99663.09;4459595;32;34126;-66
2022/01/22 05:12:57;;;;;;;;;;;;;;;9.11;43.08;99657.31;4463286;32;33495;-67
2022/01/22 05:15:24;;;;;;;;;;;;;;;9.00;43.63;99658.09;4465049;32;33737;-66
2022/01/22 05:17:51;;;;;;;;;;;;;;;9.26;43.06;99656.25;4460377;32;35637;-67
2022/01/22 05:23:00;;;;;;;;;;;;;;;9.76;41.50;99653.59;4462959;32;33031;-69
2022/01/22 05:25:38;;;;;;;;;;;;;;;9.39;42.52;99655.38;4466203;32;32717;-66
2022/01/22 05:28:18;;;;;;;;;;;;;;;8.86;44.55;99663.53;4463212;32;34036;-67
2022/01/22 05:38:47;;;;;;;;;;;;;;;9.72;41.88;99660.97;4460997;32;34176;-68
2022/01/22 05:41:15;;;;;;;;;;;;;;;9.58;42.45;99658.44;4466524;32;33419;-67
2022/01/22 05:43:42;;;;;;;;;;;;;;;9.56;42.41;99658.53;4464607;32;33552;-67
2022/01/22 05:46:10;;;;;;;;;;;;;;;9.75;42.22;99651.88;4464312;32;34016;-67
2022/01/22 05:48:37;;;;;;;;;;;;;;;9.68;42.08;99647.94;4464019;32;33958;-68
2022/01/22 05:51:06;;;;;;;;;;;;;;;9.23;43.73;99645.78;4463211;32;35298;-68
2022/01/22 05:54:13;;;;;;;;;;;;;;;9.55;42.87;99647.97;4465174;32;32922;-67
2022/01/22 06:01:57;;;;;;;;;;;;;;;9.35;43.41;99645.88;4461491;32;34240;-66
2022/01/22 06:04:24;;;;;;;;;;;;;;;9.18;43.84;99655.06;4464028;32;36261;-69
2022/01/22 06:06:53;;;;;;;;;;;;;;;9.54;42.83;99655.16;4464923;32;34195;-68
2022/01/22 06:09:21;;;;;;;;;;;;;;;9.21;43.53;99669.09;4463271;32;34396;-66
2022/01/22 06:11:58;;;;;;;;;;;;;;;9.59;43.06;99664.63;4464468;32;33539;-70
2022/01/22 06:14:25;;;;;;;;;;;;;;;9.62;42.92;99667.94;4463982;32;31985;-69
2022/01/22 06:16:53;;;;;;;;;;;;;;;8.94;44.69;99671.00;4462471;32;34053;-69
2022/01/22 06:19:22;;;;;;;;;;;;;;;9.52;43.22;99670.41;4464189;32;33029;-68
2022/01/22 06:21:51;;;;;;;;;;;;;;;9.30;43.78;99657.72;4462832;32;33987;-66
2022/01/22 06:24:21;;;;;;;;;;;;;;;9.14;44.28;99674.94;4465031;32;33204;-67
2022/01/22 06:26:49;;;;;;;;;;;;;;;9.20;44.05;99669.19;4465966;32;33841;-67
2022/01/22 06:29:16;;;;;;;;;;;;;;;9.25;44.04;99669.72;4463650;32;34148;-69
2022/01/22 06:31:44;;;;;;;;;;;;;;;9.61;42.55;99666.25;4465196;32;34350;-66
2022/01/22 06:34:12;;;;;;;;;;;;;;;9.31;43.39;99677.31;4464703;32;32019;-67
2022/01/22 06:36:39;;;;;;;;;;;;;;;9.41;43.04;99675.69;4466301;32;35688;-68
2022/01/22 06:39:16;;;;;;;;;;;;;;;9.28;43.41;99683.72;4464483;32;33127;-69
2022/01/22 06:41:46;;;;;;;;;;;;;;;9.35;42.76;99691.31;4467004;32;34877;-66
2022/01/22 06:44:14;;;;;;;;;;;;;;;9.19;43.12;99687.03;4465539;32;32082;-67
2022/01/22 06:46:43;;;;;;;;;;;;;;;9.17;43.10;99691.59;4464590;32;33731;-68
2022/01/22 06:49:22;;;;;;;;;;;;;;;9.26;42.75;99688.31;4466874;32;35499;-67
2022/01/22 06:51:50;;;;;;;;;;;;;;;8.89;43.62;99690.00;4465317;32;33965;-67
2022/01/22 06:54:20;;;;;;;;;;;;;;;8.93;43.41;99685.31;4465640;32;32855;-66
2022/01/22 06:56:48;;;;;;;;;;;;;;;8.57;44.80;99678.84;4464144;32;33962;-66
2022/01/22 06:59:16;;;;;;;;;;;;;;;8.94;43.20;99679.88;4460831;32;35421;-66
2022/01/22 07:01:45;;;;;;;;;;;;;;;8.59;44.31;99680.44;4465776;32;33926;-67
2022/01/22 07:04:13;;;;;;;;;;;;;;;8.71;44.59;99675.25;4465352;32;34163;-66
2022/01/22 07:06:40;;;;;;;;;;;;;;;7.62;47.09;99677.91;4465222;32;33789;-67
2022/01/22 07:09:08;;;;;;;;;;;;;;;7.76;46.38;99676.16;4464811;32;33384;-67
2022/01/22 07:11:36;;;;;;;;;;;;;;;7.35;47.84;99693.84;4464253;32;34349;-66
2022/01/22 07:14:03;;;;;;;;;;;;;;;8.05;46.32;99704.44;4464521;32;34533;-66
2022/01/22 07:16:31;;;;;;;;;;;;;;;8.15;45.88;99702.03;4459547;32;35062;-66
2022/01/22 07:19:02;;;;;;;;;;;;;;;8.13;45.93;99718.16;4464710;32;34093;-68
2022/01/22 07:21:31;;;;;;;;;;;;;;;8.54;44.80;99732.41;4460964;32;34349;-67
2022/01/22 07:26:30;;;;;;;;;;;;;;;8.32;45.03;99732.94;4459352;32;34333;-67
2022/01/22 07:28:58;;;;;;;;;;;;;;;9.01;43.42;99744.38;4462738;32;34050;-66
2022/01/22 07:31:27;;;;;;;;;;;;;;;9.43;41.91;99751.22;4465166;32;34191;-67
2022/01/22 07:33:54;;;;;;;;;;;;;;;9.55;42.11;99746.84;4465838;32;34508;-67
2022/01/22 07:36:22;;;;;;;;;;;;;;;9.80;41.23;99749.47;4463945;32;34665;-65
2022/01/22 07:38:49;;;;;;;;;;;;;;;10.10;40.47;99742.03;4460138;32;130993;-67
2022/01/22 07:41:17;;;;;;;;;;;;;;;9.50;41.61;99744.50;4466125;32;33127;-66
2022/01/22 07:43:44;;;;;;;;;;;;;;;9.85;40.84;99735.78;4465457;32;32580;-67
2022/01/22 07:46:15;;;;;;;;;;;;;;;10.16;39.99;99729.06;4464739;32;34938;-66
2022/01/22 07:48:46;;;;;;;;;;;;;;;9.69;40.99;99740.50;4465159;32;33441;-66
2022/01/22 07:51:16;;;;;;;;;;;;;;;10.04;40.15;99730.81;4466156;32;33917;-67
2022/01/22 07:53:44;;;;;;;;;;;;;;;10.02;40.19;99738.09;4464968;32;34347;-66
2022/01/22 07:56:14;;;;;;;;;;;;;;;10.11;40.31;99735.69;4465234;32;33301;-68
2022/01/22 07:58:41;;;;;;;;;;;;;;;9.98;40.38;99723.25;4461647;32;33964;-65
2022/01/22 08:01:09;;;;;;;;;;;;;;;9.94;40.42;99719.06;4465674;32;35302;-67
2022/01/22 08:03:37;;;;;;;;;;;;;;;9.96;40.61;99713.63;4464329;32;33492;-69
2022/01/22 08:06:24;;;;;;;;;;;;;;;9.84;41.06;99714.50;4464353;32;32868;-66
2022/01/22 08:08:54;;;;;;;;;;;;;;;9.83;40.87;99713.66;4465084;32;35489;-67
2022/01/22 08:11:40;;;;;;;;;;;;;;;10.16;40.08;99713.00;4463211;32;34558;-66
2022/01/22 08:14:10;;;;;;;;;;;;;;;8.94;43.49;99727.91;4464357;32;33457;-66
2022/01/22 08:16:37;;;;;;;;;;;;;;;8.80;43.95;99728.00;4463650;32;35128;-66
2022/01/22 08:19:05;;;;;;;;;;;;;;;8.35;45.11;99722.94;4465392;32;34535;-67
2022/01/22 08:21:33;;;;;;;;;;;;;;;9.07;43.17;99727.94;4462201;32;34006;-69
2022/01/22 08:24:09;;;;;;;;;;;;;;;8.82;43.70;99720.72;4464298;32;33131;-67
2022/01/22 08:26:43;;;;;;;;;;;;;;;8.22;45.67;99732.69;4464491;32;34032;-66
2022/01/22 08:29:10;;;;;;;;;;;;;;;7.97;46.11;99738.75;4459655;32;35564;-66
2022/01/22 08:31:52;;;;;;;;;;;;;;;8.24;45.12;99740.59;4464083;32;34320;-66
2022/01/22 08:37:07;;;;;;;;;;;;;;;8.29;44.66;99739.34;4465144;32;33918;-66
2022/01/22 08:39:34;;;;;;;;;;;;;;;8.62;44.18;99756.78;4465244;32;34419;-65
2022/01/22 08:42:01;;;;;;;;;;;;;;;8.62;44.65;99772.78;4465429;32;34102;-66
2022/01/22 08:44:29;;;;;;;;;;;;;;;8.81;43.40;99783.94;4464180;32;33048;-66
2022/01/22 08:46:57;;;;;;;;;;;;;;;8.39;44.67;99792.97;4464342;32;33148;-64
2022/01/22 08:49:25;;;;;;;;;;;;;;;9.37;42.94;99790.84;4464281;32;34157;-65
2022/01/22 08:51:53;;;;;;;;;;;;;;;9.63;41.86;99792.59;4463346;32;34002;-65
2022/01/22 08:54:21;;;;;;;;;;;;;;;9.98;41.28;99790.09;4464938;32;33173;-67
2022/01/22 08:56:48;;;;;;;;;;;;;;;9.98;41.03;99781.19;4463623;32;35052;-65
2022/01/22 08:59:16;;;;;;;;;;;;;;;10.25;40.68;99786.38;4459751;32;34786;-65
2022/01/22 09:01:44;;;;;;;;;;;;;;;10.21;40.17;99790.25;4462955;32;32647;-65
2022/01/22 09:04:13;;;;;;;;;;;;;;;10.13;40.84;99793.47;4465219;32;33401;-67
2022/01/22 09:06:41;;;;;;;;;;;;;;;8.85;42.33;99795.25;4464037;32;33153;-65
2022/01/22 09:09:10;;;;;;;;;;;;;;;9.68;41.68;99801.13;4464221;32;34234;-65
2022/01/22 09:11:40;;;;;;;;;;;;;;;9.21;42.75;99812.41;4465271;32;34427;-65
2022/01/22 09:14:09;;;;;;;;;;;;;;;8.79;43.52;99811.69;4464083;32;33205;-65
2022/01/22 09:16:38;;;;;;;;;;;;;;;8.80;43.83;99805.41;4464065;32;33895;-66
2022/01/22 09:19:06;;;;;;;;;;;;;;;8.90;42.59;99819.84;4463832;32;35362;-65
2022/01/22 09:21:35;;;;;;;;;;;;;;;10.77;39.22;99827.22;4465174;32;34859;-66
2022/01/22 09:24:03;;;;;;;;;;;;;;;10.45;38.62;99831.28;4464775;32;33368;-67
2022/01/22 09:26:30;;;;;;;;;;;;;;;12.34;35.76;99832.94;4463742;32;34210;-64
2022/01/22 09:29:00;;;;;;;;;;;;;;;13.77;33.15;99834.47;4466438;32;34402;-67
2022/01/22 09:31:28;;;;;;;;;;;;;;;15.88;28.68;99827.88;4467522;32;33812;-66
2022/01/22 09:33:57;;;;;;;;;;;;;;;14.99;29.13;99838.84;4466949;32;33495;-65
2022/01/22 09:36:25;;;;;;;;;;;;;;;17.28;26.32;99833.94;4467805;32;34121;-65
2022/01/22 09:38:53;;;;;;;;;;;;;;;17.39;26.38;99839.94;4466322;32;34236;-65
2022/01/22 09:41:22;;;;;;;;;;;;;;;14.99;29.79;99841.56;4464893;32;33984;-65
2022/01/22 09:43:53;;;;;;;;;;;;;;;14.44;29.88;99845.56;4465887;32;32671;-66
2022/01/22 09:46:21;;;;;;;;;;;;;;;12.81;32.16;99847.84;4466039;32;34137;-65
2022/01/22 09:48:49;;;;;;;;;;;;;;;12.05;34.35;99851.38;4467247;32;34456;-65
2022/01/22 09:51:17;;;;;;;;;;;;;;;12.51;34.23;99853.03;4463934;32;34035;-65
2022/01/22 09:53:45;;;;;;;;;;;;;;;12.02;33.97;99852.47;4466412;32;33447;-65
2022/01/22 09:56:17;;;;;;;;;;;;;;;11.80;35.28;99844.34;4465386;32;35180;-67
2022/01/22 09:58:46;;;;;;;;;;;;;;;12.15;34.79;99846.97;4465912;32;34078;-65
2022/01/22 10:01:17;;;;;;;;;;;;;;;11.79;34.68;99845.34;4466021;32;34419;-65
2022/01/22 10:03:46;;;;;;;;;;;;;;;11.79;35.05;99851.56;4467422;32;34475;-67
2022/01/22 10:06:14;;;;;;;;;;;;;;;13.28;32.91;99852.97;4466645;32;33358;-65
2022/01/22 10:08:42;;;;;;;;;;;;;;;12.37;33.37;99847.94;4466288;32;34340;-66
2022/01/22 10:11:19;;;;;;;;;;;;;;;12.68;33.08;99849.84;4467010;32;34925;-65
2022/01/22 10:13:52;;;;;;;;;;;;;;;12.87;32.22;99848.31;4460865;32;33197;-66
2022/01/22 10:16:20;;;;;;;;;;;;;;;12.45;33.19;99854.38;4464878;32;34248;-65
2022/01/22 10:19:08;;;;;;;;;;;;;;;12.34;33.10;99849.03;4464224;32;34026;-67
2022/01/22 10:21:36;;;;;;;;;;;;;;;12.74;33.38;99862.75;4454976;32;33952;-66
2022/01/22 10:24:27;;;;;;;;;;;;;;;15.00;29.52;99870.22;4466907;32;34418;-68
2022/01/22 10:27:23;;;;;;;;;;;;;;;15.78;28.13;99868.38;4465804;32;33104;-65
2022/01/22 10:29:53;;;;;;;;;;;;;;;16.71;26.50;99867.44;4462417;32;35210;-66
2022/01/22 10:32:26;;;;;;;;;;;;;;;16.41;25.87;99856.97;4466204;32;34126;-66
2022/01/22 10:35:07;;;;;;;;;;;;;;;17.35;25.31;99868.31;4465806;32;32987;-68
2022/01/22 10:37:43;;;;;;;;;;;;;;;18.34;23.98;99876.16;4466232;32;32414;-68
2022/01/22 10:40:17;;;;;;;;;;;;;;;17.65;25.12;99880.56;4463647;32;34338;-66
2022/01/22 10:42:44;;;;;;;;;;;;;;;17.84;24.46;99873.31;4463828;32;35253;-66
2022/01/22 10:45:19;;;;;;;;;;;;;;;17.86;23.66;99865.88;4464179;32;34655;-65
2022/01/22 10:47:46;;;;;;;;;;;;;;;17.79;23.53;99873.78;4465473;32;34266;-65
2022/01/22 10:50:17;;;;;;;;;;;;;;;18.46;22.71;99862.31;4464525;32;33062;-66
2022/01/22 10:52:48;;;;;;;;;;;;;;;18.47;22.68;99874.88;4466134;32;32679;-67
2022/01/22 10:55:16;;;;;;;;;;;;;;;18.62;23.16;99871.37;4465321;32;32379;-67
2022/01/22 10:58:02;;;;;;;;;;;;;;;17.43;23.84;99887.34;4465273;32;34341;-67
2022/01/22 11:00:29;;;;;;;;;;;;;;;16.90;24.62;99879.19;4463747;32;34380;-68
2022/01/22 11:02:57;;;;;;;;;;;;;;;16.45;25.20;99897.03;4465364;32;35107;-67
2022/01/22 11:05:34;;;;;;;;;;;;;;;15.61;26.09;99902.31;4468704;32;32028;-66
2022/01/22 11:08:09;;;;;;;;;;;;;;;15.48;26.25;99897.22;4466927;32;34671;-66
2022/01/22 11:10:36;;;;;;;;;;;;;;;15.69;25.98;99909.72;4467428;32;34347;-67
2022/01/22 11:13:04;;;;;;;;;;;;;;;15.56;26.20;99912.69;4468016;32;34237;-67
2022/01/22 11:15:31;;;;;;;;;;;;;;;15.91;25.76;99905.84;4465451;32;33347;-68
2022/01/22 11:17:58;;;;;;;;;;;;;;;15.10;26.63;99916.91;4465745;32;33351;-66
2022/01/22 11:20:26;;;;;;;;;;;;;;;14.84;27.30;99913.88;4466828;32;33891;-67
2022/01/22 11:22:54;;;;;;;;;;;;;;;14.82;26.92;99915.84;4467098;32;33821;-68
2022/01/22 11:25:21;;;;;;;;;;;;;;;14.37;26.75;99919.75;4466617;32;33966;-67
2022/01/22 11:27:48;;;;;;;;;;;;;;;14.56;26.94;99924.41;4464889;32;32268;-67
2022/01/22 11:30:16;;;;;;;;;;;;;;;14.99;26.84;99928.69;4464521;32;35295;-67
2022/01/22 11:32:48;;;;;;;;;;;;;;;14.14;27.30;99932.53;4465657;32;32683;-67
2022/01/22 11:35:32;;;;;;;;;;;;;;;15.07;26.72;99942.31;4465715;32;34614;-67
2022/01/22 11:38:01;;;;;;;;;;;;;;;15.45;26.26;99926.31;4468442;32;32653;-68
2022/01/22 11:40:32;;;;;;;;;;;;;;;14.62;26.95;99931.09;4466598;32;34184;-67
2022/01/22 11:43:06;;;;;;;;;;;;;;;14.26;27.14;99932.47;4468144;32;33953;-68
2022/01/22 11:45:39;;;;;;;;;;;;;;;12.68;29.51;99933.09;4464013;32;34479;-66
2022/01/22 11:48:13;;;;;;;;;;;;;;;12.92;29.44;99932.06;4467577;32;34977;-66
2022/01/22 11:50:41;;;;;;;;;;;;;;;12.66;28.75;99942.25;4467707;32;34183;-66
2022/01/22 11:53:42;;;;;;;;;;;;;;;11.53;30.17;99933.16;4466597;32;34851;-67
2022/01/22 11:56:10;;;;;;;;;;;;;;;11.35;31.30;99936.22;4440187;32;33214;-65
2022/01/22 11:58:56;;;;;;;;;;;;;;;12.03;29.33;99942.69;4467631;32;32644;-67
2022/01/22 12:01:43;;;;;;;;;;;;;;;11.93;29.54;99948.88;4466150;32;35740;-67
2022/01/22 12:04:14;;;;;;;;;;;;;;;11.58;29.76;99942.53;4465953;32;34199;-66
2022/01/22 12:07:00;;;;;;;;;;;;;;;10.47;31.03;99955.16;4461761;32;34447;-66
2022/01/22 12:09:34;;;;;;;;;;;;;;;10.40;32.50;99964.59;4465268;32;34310;-67
2022/01/22 12:15:12;;;;;;;;;;;;;;;10.52;30.58;99957.47;4465617;32;34428;-65
2022/01/22 12:17:55;;;;;;;;;;;;;;;10.76;31.33;99957.56;4468699;32;32775;-66
2022/01/22 12:23:06;;;;;;;;;;;;;;;11.29;30.34;99957.25;4465699;32;35112;-66
2022/01/22 12:25:34;;;;;;;;;;;;;;;10.92;30.92;99954.63;4463716;32;34471;-66
2022/01/22 12:28:02;;;;;;;;;;;;;;;10.64;32.23;99953.09;4465968;32;33334;-66
2022/01/22 12:30:36;;;;;;;;;;;;;;;10.89;31.15;99952.19;4464115;32;32744;-66
2022/01/22 12:33:06;;;;;;;;;;;;;;;10.68;31.65;99946.53;4465735;32;35427;-66
2022/01/22 12:35:34;;;;;;;;;;;;;;;9.85;33.07;99952.31;4466781;32;34168;-66
2022/01/22 12:38:35;;;;;;;;;;;;;;;10.49;31.90;99953.19;4466197;32;33471;-66
2022/01/22 12:41:15;;;;;;;;;;;;;;;10.33;31.43;99951.72;4465313;32;34213;-66
2022/01/22 12:43:44;;;;;;;;;;;;;;;9.87;31.21;99945.06;4468195;32;35426;-65
2022/01/22 12:46:12;;;;;;;;;;;;;;;9.43;32.77;99951.59;4466767;32;34749;-66
2022/01/22 12:48:40;;;;;;;;;;;;;;;9.95;33.01;99956.09;4463904;32;34104;-67
2022/01/22 12:51:08;;;;;;;;;;;;;;;9.45;32.79;99962.19;4458596;32;32044;-65
2022/01/22 12:53:37;;;;;;;;;;;;;;;9.16;32.96;99958.78;4464928;32;35264;-65
2022/01/22 12:58:39;;;;;;;;;;;;;;;9.36;33.01;99973.47;4465174;32;32625;-67
2022/01/22 13:01:11;;;;;;;;;;;;;;;10.12;31.77;99986.16;4468137;32;35221;-66
2022/01/22 13:03:42;;;;;;;;;;;;;;;9.92;32.21;99990.19;4461868;32;32654;-65
2022/01/22 13:06:10;;;;;;;;;;;;;;;10.02;30.88;99989.47;4464880;32;34262;-66
2022/01/22 13:08:43;;;;;;;;;;;;;;;10.04;32.75;99992.87;4459049;32;33488;-65
2022/01/22 13:11:17;;;;;;;;;;;;;;;10.00;30.63;99986.03;4461490;32;33803;-66
2022/01/22 13:13:46;;;;;;;;;;;;;;;10.53;29.55;99988.66;4458752;32;34303;-66
2022/01/22 13:16:16;;;;;;;;;;;;;;;9.79;31.16;99998.16;4459251;32;35125;-66
2022/01/22 13:18:49;;;;;;;;;;;;;;;9.53;32.23;99995.47;4461653;32;34894;-65
2022/01/22 13:21:17;;;;;;;;;;;;;;;9.63;31.56;99994.81;4460050;32;34323;-65
2022/01/22 13:23:46;;;;;;;;;;;;;;;10.30;30.73;99992.06;4458257;32;34171;-66
2022/01/22 13:26:14;;;;;;;;;;;;;;;10.30;30.27;99997.41;4459921;32;34393;-66
2022/01/22 13:28:43;;;;;;;;;;;;;;;9.52;30.90;99995.53;4460338;32;33932;-65
2022/01/22 13:31:17;;;;;;;;;;;;;;;9.37;31.35;100000.06;4456633;32;34124;-66
2022/01/22 13:33:54;;;;;;;;;;;;;;;9.93;30.30;100008.81;4460288;32;32979;-65
2022/01/22 13:36:45;;;;;;;;;;;;;;;9.18;31.23;100010.25;4463394;32;34776;-65
2022/01/22 13:49:59;;;;;;;;;;;;;;;9.52;30.82;100038.31;4461315;32;33051;-65
2022/01/22 13:52:27;;;;;;;;;;;;;;;9.33;30.95;100042.16;4474682;32;33759;-64
2022/01/22 13:54:54;;;;;;;;;;;;;;;9.27;31.50;100042.56;4460785;31;34309;-66
2022/01/22 13:57:30;;;;;;;;;;;;;;;10.03;30.48;100052.69;4460922;32;33029;-66
2022/01/22 13:59:57;;;;;;;;;;;;;;;9.95;30.81;100055.03;4457740;32;33400;-66
2022/01/22 14:02:49;;;;;;;;;;;;;;;10.35;30.73;100060.34;4458519;32;33397;-64
2022/01/22 14:05:17;;;;;;;;;;;;;;;10.16;30.35;100058.06;4458686;31;34231;-65
2022/01/22 14:07:47;;;;;;;;;;;;;;;9.80;31.00;100058.72;4456305;32;33240;-65
2022/01/22 14:10:16;;;;;;;;;;;;;;;10.64;28.57;100076.22;4471150;32;33454;-64
2022/01/22 14:12:47;;;;;;;;;;;;;;;9.69;31.21;100078.13;4458743;32;33994;-65
2022/01/22 14:15:17;;;;;;;;;;;;;;;8.91;31.53;100067.13;4455964;32;34215;-64
2022/01/22 14:18:07;;;;;;;;;;;;;;;8.97;32.71;100081.91;4463129;32;34492;-66
2022/01/22 14:20:35;;;;;;;;;;;;;;;9.81;32.07;100097.84;4463940;32;33475;-65
2022/01/22 14:23:04;;;;;;;;;;;;;;;8.10;34.62;100101.41;4463677;32;34541;-66
2022/01/22 14:25:33;;;;;;;;;;;;;;;8.86;32.05;100111.97;4464752;32;33634;-64
2022/01/22 14:28:04;;;;;;;;;;;;;;;9.14;31.63;100115.56;4466624;32;34365;-65
2022/01/22 14:30:35;;;;;;;;;;;;;;;9.87;32.09;100126.00;4456145;32;33638;-66
2022/01/22 14:33:02;;;;;;;;;;;;;;;9.68;30.56;100137.03;4455581;32;34481;-66
2022/01/22 14:35:30;;;;;;;;;;;;;;;9.26;31.79;100141.50;4460479;32;34510;-66
2022/01/22 14:38:17;;;;;;;;;;;;;;;9.31;31.38;100150.09;4455899;32;34082;-66
2022/01/22 14:44:01;;;;;;;;;;;;;;;10.13;31.33;100167.91;4462074;32;34888;-65
2022/01/22 14:46:41;;;;;;;;;;;;;;;9.94;32.07;100178.97;4465225;32;33735;-66
2022/01/22 14:49:09;;;;;;;;;;;;;;;10.82;28.75;100176.69;4465841;32;34100;-66
2022/01/22 14:51:36;;;;;;;;;;;;;;;10.94;28.02;100180.31;4464124;32;33059;-65
2022/01/22 14:54:04;;;;;;;;;;;;;;;10.68;29.22;100184.78;4461270;32;34624;-67
2022/01/22 14:56:32;;;;;;;;;;;;;;;10.22;29.26;100193.22;4459833;32;35538;-64
2022/01/22 14:58:59;;;;;;;;;;;;;;;10.08;29.69;100196.81;4466696;32;34217;-67
2022/01/22 15:01:26;;;;;;;;;;;;;;;10.39;28.69;100195.66;4457016;32;33728;-66
2022/01/22 15:03:54;;;;;;;;;;;;;;;10.60;28.74;100206.75;4467400;32;35211;-66